Time;durP1;ratioP1;P1;durP2;ratioP2;P2;SDS_P1;SDS_P2;PMS_P1;PMS_P2;Temp;Humidity;BMP_temperature;BMP_pressure;BME280_temperature;BME280_humidity;BME280_pressure;Samples;Min_cycle;Max_cycle;Signal;HPM_P1;HPM_P2
2023/04/22 00:00:11;;;;;;;40.15;28.33;;;12.20;99.90;;;12.59;82.49;100688.56;5053310;28;20068;-74
2023/04/22 00:02:39;;;;;;;37.13;27.73;;;12.20;99.90;;;12.53;82.43;100675.38;5058251;28;20405;-74
2023/04/22 00:05:12;;;;;;;34.10;27.05;;;12.30;99.90;;;12.61;82.45;100698.25;5058617;28;20059;-74
2023/04/22 00:07:44;;;;;;;40.05;27.70;;;12.20;99.90;;;12.63;82.28;100687.63;5057777;28;20520;-75
2023/04/22 00:10:13;;;;;;;39.90;28.60;;;12.30;99.90;;;12.39;82.39;100650.84;5058837;28;20041;-75
2023/04/22 00:12:41;;;;;;;39.33;28.02;;;12.20;99.90;;;12.65;82.52;100689.34;5058617;28;20041;-74
2023/04/22 00:15:11;;;;;;;44.33;29.58;;;12.30;99.90;;;12.69;82.31;100691.06;5060066;28;20036;-74
2023/04/22 00:17:41;;;;;;;40.72;28.45;;;12.30;99.90;;;12.68;82.21;100686.63;5058685;28;20471;-74
2023/04/22 00:20:12;;;;;;;;;;;12.30;99.90;;;12.63;81.95;100684.97;5058413;28;20120;-73
2023/04/22 00:22:40;;;;;;;32.28;24.00;;;12.40;99.90;;;12.49;82.24;100684.28;5056936;28;20188;-74
2023/04/22 00:25:09;;;;;;;46.88;28.55;;;12.20;99.90;;;12.45;82.74;100683.47;5058152;28;20041;-74
2023/04/22 00:27:37;;;;;;;38.30;28.05;;;12.20;99.90;;;12.43;82.86;100679.06;5058121;28;20444;-74
2023/04/22 00:30:08;;;;;;;16.27;14.57;;;12.10;99.90;;;12.14;81.60;100673.31;5058246;28;20045;-74
2023/04/22 00:32:37;;;;;;;19.60;10.38;;;12.00;99.90;;;11.72;81.92;100654.44;5057983;28;20041;-74
2023/04/22 00:35:07;;;;;;;15.85;14.13;;;11.70;99.90;;;11.81;82.92;100684.38;5056871;28;20052;-75
2023/04/22 00:37:37;;;;;;;37.45;27.25;;;11.50;99.90;;;11.65;83.58;100638.63;5055619;28;20045;-74
2023/04/22 00:40:07;;;;;;;40.20;29.08;;;11.50;99.90;;;11.99;84.20;100692.06;5055237;28;20080;-75
2023/04/22 00:42:37;;;;;;;43.17;29.85;;;11.60;99.90;;;12.07;84.54;100688.44;5071824;28;20710;-74
2023/04/22 00:45:11;;;;;;;41.58;30.70;;;11.70;99.90;;;12.12;84.70;100691.00;5055276;28;20079;-74
2023/04/22 00:47:41;;;;;;;45.65;32.22;;;11.70;99.90;;;12.15;84.69;100689.22;5055944;28;20045;-74
2023/04/22 00:50:10;;;;;;;49.38;33.13;;;11.80;99.90;;;12.17;84.80;100690.06;5055957;28;20565;-74
2023/04/22 00:52:39;;;;;;;46.90;32.20;;;11.80;99.90;;;12.18;84.86;100683.84;5055473;28;20041;-74
2023/04/22 00:55:09;;;;;;;41.97;33.13;;;11.80;99.90;;;12.14;84.46;100675.97;5055578;28;20121;-74
2023/04/22 00:57:38;;;;;;;47.75;32.63;;;11.90;99.90;;;12.20;84.14;100694.44;5054520;28;20049;-74
2023/04/22 01:00:09;;;;;;;36.30;28.60;;;11.80;99.90;;;12.03;84.49;100685.84;5055390;28;20042;-74
2023/04/22 01:02:38;;;;;;;25.65;21.25;;;11.80;99.90;;;11.12;85.50;100619.81;5055407;28;20048;-75
2023/04/22 01:05:08;;;;;;;32.20;25.40;;;11.20;99.90;;;11.10;86.89;100672.78;5055226;28;20041;-75
2023/04/22 01:07:39;;;;;;;30.20;24.25;;;10.80;99.90;;;11.15;87.44;100691.25;5055393;28;20148;-74
2023/04/22 01:10:09;;;;;;;36.50;28.08;;;10.70;99.90;;;11.05;87.93;100679.88;5055310;28;20052;-75
2023/04/22 01:12:37;;;;;;;32.35;25.83;;;10.60;99.90;;;11.12;88.47;100676.28;5053649;28;20125;-74
2023/04/22 01:15:08;;;;;;;38.88;28.38;;;10.60;99.90;;;11.18;88.78;100673.56;5053797;28;20250;-74
2023/04/22 01:17:37;;;;;;;45.75;30.92;;;10.80;99.90;;;11.26;88.76;100677.03;5055150;28;20080;-74
2023/04/22 01:20:09;;;;;;;43.90;31.15;;;10.90;99.90;;;11.38;88.62;100676.03;5053786;28;20049;-75
2023/04/22 01:22:42;;;;;;;43.83;31.05;;;11.00;99.90;;;11.45;88.13;100670.63;5054977;28;20047;-74
2023/04/22 01:25:12;;;;;;;41.60;30.63;;;11.10;99.90;;;11.39;87.78;100646.88;5053886;28;20056;-74
2023/04/22 01:27:41;;;;;;;44.28;31.90;;;11.20;99.90;;;11.65;87.25;100671.28;5055128;28;20584;-74
2023/04/22 01:30:11;;;;;;;43.00;32.60;;;11.30;99.90;;;11.71;86.77;100681.81;5055043;28;20041;-74
2023/04/22 01:32:40;;;;;;;48.40;32.78;;;11.40;99.90;;;11.77;86.52;100679.09;5054803;28;20041;-74
2023/04/22 01:35:10;;;;;;;44.83;33.35;;;11.50;99.90;;;11.79;86.21;100677.31;5054869;28;20048;-74
2023/04/22 01:37:39;;;;;;;29.90;24.30;;;11.50;99.90;;;11.59;85.52;100666.03;5053855;28;20055;-74
2023/04/22 01:40:12;;;;;;;16.95;13.82;;;11.40;99.90;;;11.35;85.28;100668.97;5054646;28;20060;-74
2023/04/22 01:42:40;;;;;;;38.55;28.83;;;11.00;99.90;;;11.21;85.94;100649.69;5054410;28;20441;-75
2023/04/22 01:45:11;;;;;;;38.20;30.48;;;10.90;99.90;;;11.28;86.53;100662.00;5054627;28;20122;-74
2023/04/22 01:47:40;;;;;;;38.78;30.75;;;11.00;99.90;;;11.36;86.89;100659.25;5054686;28;20048;-74
2023/04/22 01:50:10;;;;;;;41.03;32.35;;;11.00;99.90;;;11.37;87.05;100666.31;5054554;28;20033;-75
2023/04/22 01:52:39;;;;;;;43.15;32.72;;;11.00;99.90;;;11.40;87.45;100669.78;5054720;28;20044;-75
2023/04/22 01:55:09;;;;;;;46.33;32.88;;;11.00;99.90;;;11.33;87.51;100660.16;5054084;28;20471;-74
2023/04/22 01:57:39;;;;;;;44.88;32.58;;;10.90;99.90;;;11.34;87.92;100659.25;5069868;28;20052;-74
2023/04/22 02:00:09;;;;;;;40.13;31.13;;;10.90;99.90;;;11.20;87.88;100655.03;5069671;28;20048;-74
2023/04/22 02:02:43;;;;;;;44.25;31.33;;;10.80;99.90;;;10.84;88.56;100657.13;5054188;28;20749;-74
2023/04/22 02:05:12;;;;;;;49.45;34.03;;;10.40;99.90;;;10.33;90.66;100651.38;5054108;28;20041;-74
2023/04/22 02:07:40;;;;;;;50.67;37.92;;;10.00;99.90;;;10.17;92.84;100658.53;5053679;28;20072;-74
2023/04/22 02:10:10;;;;;;;55.55;40.22;;;9.80;99.90;;;10.21;94.08;100659.38;5053720;28;20402;-75
2023/04/22 02:12:40;;;;;;;55.38;41.42;;;9.80;99.90;;;10.06;95.11;100660.34;5086258;28;20051;-75
2023/04/22 02:15:11;;;;;;;56.47;40.93;;;9.70;99.90;;;10.08;95.97;100655.91;5053726;28;20140;-74
2023/04/22 02:17:42;;;;;;;59.83;43.78;;;9.60;99.90;;;10.00;96.03;100655.09;5053947;28;20144;-75
2023/04/22 02:20:13;;;;;;;62.75;45.70;;;9.60;99.90;;;9.99;96.15;100646.28;5052551;28;20056;-74
2023/04/22 02:22:43;;;;;;;60.80;44.22;;;9.60;99.90;;;10.08;96.02;100653.28;5052227;28;20049;-74
2023/04/22 02:25:13;;;;;;;58.85;42.83;;;9.70;99.90;;;9.95;95.96;100617.22;5053267;28;20076;-74
2023/04/22 02:27:44;;;;;;;59.05;43.45;;;9.70;99.90;;;10.08;95.75;100637.44;5053983;28;20045;-75
2023/04/22 02:30:13;;;;;;;57.55;41.85;;;9.80;99.90;;;9.96;96.09;100642.78;5052599;28;20822;-75
2023/04/22 02:32:41;;;;;;;58.35;43.95;;;9.70;99.90;;;9.75;97.26;100643.78;5053646;28;20033;-74
2023/04/22 02:35:11;;;;;;;59.40;41.63;;;9.40;99.90;;;9.55;97.69;100635.06;5053564;28;20040;-75
2023/04/22 02:37:40;;;;;;;58.58;42.50;;;9.30;99.90;;;9.47;98.79;100635.94;5053574;28;20124;-74
2023/04/22 02:40:09;;;;;;;60.67;42.33;;;9.10;99.90;;;9.40;99.64;100624.56;5053396;28;20398;-74
2023/04/22 02:42:37;;;;;;;59.42;43.03;;;9.10;99.90;;;9.44;99.48;100636.88;5053045;28;20434;-74
2023/04/22 02:45:09;;;;;;;57.85;43.03;;;9.10;99.90;;;9.41;99.79;100642.13;5053029;28;20566;-74
2023/04/22 02:47:38;;;;;;;59.90;41.53;;;9.10;99.90;;;9.19;99.93;100592.97;5068668;28;20148;-75
2023/04/22 02:50:09;;;;;;;61.55;43.72;;;9.00;99.90;;;9.22;99.93;100616.69;5053248;28;20063;-74
2023/04/22 02:52:38;;;;;;;64.25;43.20;;;8.90;99.90;;;9.14;100.00;100622.88;5053503;28;20075;-74
2023/04/22 02:55:08;;;;;;;68.15;47.67;;;8.80;99.90;;;9.23;100.00;100622.84;5068451;28;20059;-74
2023/04/22 02:57:37;;;;;;;71.80;45.92;;;8.90;99.90;;;9.26;100.00;100621.09;5068530;28;20063;-74
2023/04/22 03:00:09;;;;;;;63.05;45.05;;;9.00;99.90;;;9.44;100.00;100621.03;5052767;28;20087;-74
2023/04/22 03:02:37;;;;;;;65.30;45.75;;;9.10;99.90;;;9.66;100.00;100621.78;5051590;28;20071;-75
2023/04/22 03:05:17;;;;;;;64.00;44.97;;;9.30;99.90;;;9.90;100.00;100619.91;5052951;28;20218;-74
2023/04/22 03:07:46;;;;;;;59.63;44.35;;;9.60;99.90;;;10.14;99.24;100618.03;5051468;28;20041;-74
2023/04/22 03:10:16;;;;;;;62.78;42.65;;;9.80;99.90;;;10.16;97.88;100618.91;5051565;28;20168;-74
2023/04/22 03:12:45;;;;;;;65.63;45.67;;;9.90;99.90;;;10.24;97.68;100617.09;5051445;28;20406;-75
2023/04/22 03:15:15;;;;;;;63.92;45.55;;;10.00;99.90;;;10.01;96.99;100610.16;5051017;28;20448;-74
2023/04/22 03:17:47;;;;;;;68.68;46.40;;;9.90;99.90;;;10.11;96.82;100615.41;5052430;28;20045;-75
2023/04/22 03:20:16;;;;;;;67.28;47.85;;;10.00;99.90;;;9.96;97.22;100611.97;5051230;28;20153;-74
2023/04/22 03:22:45;;;;;;;72.05;49.13;;;9.80;99.90;;;9.86;97.99;100604.97;5052648;28;20063;-76
2023/04/22 03:25:15;;;;;;;71.27;49.30;;;9.70;99.90;;;9.92;98.30;100607.56;5051250;28;20041;-75
2023/04/22 03:27:49;;;;;;;71.40;50.88;;;9.70;99.90;;;9.95;98.50;100610.19;5051326;28;20306;-75
2023/04/22 03:30:20;;;;;;;71.10;49.65;;;9.70;99.90;;;9.98;98.41;100607.53;5084752;28;20136;-74
2023/04/22 03:32:48;;;;;;;76.53;51.10;;;9.70;99.90;;;10.19;98.10;100605.66;5051306;28;20094;-75
2023/04/22 03:35:24;;;;;;;72.95;50.83;;;9.90;99.90;;;10.29;97.55;100605.59;5050489;28;20449;-74
2023/04/22 03:37:53;;;;;;;70.13;48.95;;;10.00;99.90;;;10.26;97.48;100596.81;5067884;28;20045;-74
2023/04/22 03:40:27;;;;;;;69.13;48.67;;;10.00;99.90;;;9.99;97.82;100590.78;5067665;28;20088;-75
2023/04/22 03:42:56;;;;;;;74.20;50.22;;;9.80;99.90;;;9.90;98.28;100584.69;5051248;28;20049;-74
2023/04/22 03:45:27;;;;;;;74.15;51.17;;;9.70;99.90;;;9.97;98.08;100587.28;5051021;28;20099;-74
2023/04/22 03:48:18;;;;;;;73.22;50.75;;;9.70;99.90;;;9.93;98.53;100590.81;5052371;28;20112;-74
2023/04/22 03:50:50;;;;;;;68.97;49.30;;;9.60;99.90;;;9.86;98.79;100583.84;5067773;28;20102;-75
2023/04/22 03:53:18;;;;;;;75.93;51.63;;;9.70;99.90;;;9.91;99.11;100587.31;5050983;28;20053;-75
2023/04/22 03:55:47;;;;;;;77.72;54.15;;;9.70;99.90;;;10.09;98.69;100588.97;5050625;28;20037;-74
2023/04/22 03:58:18;;;;;;;77.13;54.40;;;9.80;99.90;;;10.09;98.22;100559.00;5051120;28;20053;-75
2023/04/22 04:00:49;;;;;;;80.15;53.00;;;9.90;99.90;;;10.31;97.70;100576.50;5067979;28;20482;-75
2023/04/22 04:03:19;;;;;;;79.72;53.95;;;10.00;99.90;;;10.43;97.22;100571.13;5067622;28;20053;-75
2023/04/22 04:05:51;;;;;;;80.68;53.60;;;10.10;99.90;;;10.55;96.74;100571.00;5067668;28;20077;-75
2023/04/22 04:08:21;;;;;;;74.15;52.55;;;10.30;99.90;;;10.59;96.49;100578.88;5050934;28;20068;-75
2023/04/22 04:10:50;;;;;;;76.78;53.30;;;10.30;99.90;;;10.67;95.89;100576.16;5051927;28;20564;-75
2023/04/22 04:13:18;;;;;;;75.38;51.60;;;10.30;99.90;;;9.88;95.54;100444.69;5050914;28;20048;-75
2023/04/22 04:16:15;;;;;;;75.70;52.33;;;10.30;99.90;;;10.56;95.90;100567.47;5051866;28;20057;-75
2023/04/22 04:18:45;;;;;;;73.53;51.45;;;10.30;99.90;;;10.57;95.90;100562.16;5051038;28;20134;-75
2023/04/22 04:21:14;;;;;;;75.40;53.05;;;10.30;99.90;;;10.46;95.56;100565.78;5067851;28;20053;-75
2023/04/22 04:23:48;;;;;;;78.38;53.88;;;10.30;99.90;;;10.44;95.52;100565.81;5050833;28;20487;-75
2023/04/22 04:26:19;;;;;;;74.95;51.90;;;10.20;99.90;;;10.50;95.92;100559.59;5050522;28;20060;-75
2023/04/22 04:28:52;;;;;;;78.65;53.47;;;10.30;99.90;;;10.60;95.35;100570.06;5050791;28;20060;-75
2023/04/22 04:31:23;;;;;;;76.60;53.85;;;10.30;99.90;;;10.67;95.22;100570.88;5050817;28;20132;-75
2023/04/22 04:33:56;;;;;;;77.78;55.15;;;10.30;99.90;;;10.73;95.12;100557.59;5050821;28;20088;-75
2023/04/22 04:36:27;;;;;;;74.22;52.58;;;10.40;99.90;;;10.82;94.98;100566.31;5050661;28;20041;-74
2023/04/22 04:39:03;;;;;;;78.22;53.85;;;10.50;99.90;;;10.89;94.63;100562.72;5050854;28;20041;-75
2023/04/22 04:41:32;;;;;;;76.70;54.55;;;10.60;99.90;;;10.96;94.18;100566.16;5067113;28;20081;-75
2023/04/22 04:44:01;;;;;;;73.18;52.85;;;10.60;99.90;;;11.01;93.81;100574.94;5050634;28;20059;-75
2023/04/22 04:46:36;;;;;;;74.72;53.90;;;10.70;99.90;;;11.06;93.57;100570.47;5052381;28;20045;-75
2023/04/22 04:49:05;;;;;;;75.07;51.75;;;10.70;99.90;;;11.16;93.03;100561.53;5054329;28;20055;-75
2023/04/22 04:51:40;;;;;;;76.78;54.03;;;10.80;99.90;;;11.16;92.73;100550.06;5054309;28;20041;-75
2023/04/22 04:54:09;;;;;;;73.07;51.95;;;10.90;99.90;;;11.27;92.66;100559.63;5054170;28;20051;-74
2023/04/22 04:56:40;;;;;;;68.47;51.67;;;10.90;99.90;;;11.26;92.10;100552.59;5070659;28;20090;-75
2023/04/22 04:59:09;;;;;;;71.60;51.88;;;10.90;99.90;;;11.19;92.01;100519.13;5053973;28;20501;-75
2023/04/22 05:01:41;;;;;;;71.80;51.95;;;11.00;99.90;;;11.34;91.81;100539.25;5054132;28;20041;-75
2023/04/22 05:04:12;;;;;;;66.88;49.10;;;11.10;99.90;;;11.50;91.61;100541.66;5053944;28;20140;-75
2023/04/22 05:06:43;;;;;;;66.82;50.88;;;11.10;99.90;;;11.60;91.18;100543.31;5053717;28;20049;-74
2023/04/22 05:09:13;;;;;;;70.68;50.97;;;11.30;99.90;;;11.63;90.83;100530.00;5053780;28;20045;-74
2023/04/22 05:11:44;;;;;;;69.38;50.60;;;11.30;99.90;;;11.64;90.37;100533.53;5070498;28;20045;-74
2023/04/22 05:14:17;;;;;;;68.57;50.28;;;11.30;99.90;;;11.73;90.26;100547.56;5053711;28;20041;-75
2023/04/22 05:16:48;;;;;;;69.15;50.95;;;11.40;99.90;;;11.32;90.19;100549.88;5053479;28;20049;-75
2023/04/22 05:19:17;;;;;;;67.70;50.35;;;11.10;99.90;;;11.00;92.17;100554.66;5054840;28;20604;-75
2023/04/22 05:21:48;;;;;;;61.85;46.35;;;10.70;99.90;;;10.75;93.15;100526.72;5053580;28;20037;-75
2023/04/22 05:24:17;;;;;;;68.68;50.65;;;10.50;99.90;;;10.95;93.33;100551.19;5070483;28;20053;-75
2023/04/22 05:26:46;;;;;;;67.50;50.38;;;10.50;99.90;;;11.16;93.39;100563.28;5053188;28;20115;-74
2023/04/22 05:29:18;;;;;;;68.00;49.45;;;10.70;99.90;;;11.24;92.80;100564.09;5053443;28;20157;-73
2023/04/22 05:31:49;;;;;;;69.93;50.90;;;10.80;99.90;;;10.96;92.94;100562.63;5053332;28;20053;-73
2023/04/22 05:34:17;;;;;;;73.90;55.85;;;10.70;99.90;;;10.99;94.08;100563.50;5053343;28;20051;-74
2023/04/22 05:36:46;;;;;;;72.65;53.75;;;10.60;99.90;;;10.89;93.95;100556.56;5069470;28;20075;-74
2023/04/22 05:39:14;;;;;;;71.47;53.03;;;10.60;99.90;;;10.75;95.06;100558.44;5069855;28;20049;-74
2023/04/22 05:41:44;;;;;;;66.85;49.45;;;10.40;99.90;;;10.77;95.64;100561.97;5052948;28;20092;-74
2023/04/22 05:44:16;;;;;;;68.13;50.58;;;10.40;99.90;;;10.66;96.00;100556.78;5054761;28;20072;-74
2023/04/22 05:46:45;;;;;;;65.97;49.35;;;10.30;99.90;;;10.60;96.47;100555.97;5053114;28;20083;-74
2023/04/22 05:49:15;;;;;;;68.25;50.53;;;10.30;99.90;;;10.46;96.82;100566.66;5069729;28;20075;-75
2023/04/22 05:52:01;;;;;;;67.78;49.50;;;10.20;99.90;;;10.57;97.61;100569.19;5054339;28;20056;-74
2023/04/22 05:54:39;;;;;;;73.35;50.55;;;10.20;99.90;;;10.75;97.66;100558.44;5069562;28;20045;-74
2023/04/22 05:57:08;;;;;;;70.55;51.38;;;10.30;99.90;;;10.90;96.83;100559.16;5086100;28;20056;-74
2023/04/22 05:59:37;;;;;;;68.22;50.35;;;10.50;99.90;;;11.06;96.54;100554.59;5052344;28;20048;-74
2023/04/22 06:02:06;;;;;;;69.75;49.45;;;10.70;99.90;;;11.18;95.72;100569.44;5052724;28;20057;-74
2023/04/22 06:04:36;;;;;;;64.70;49.97;;;10.80;99.90;;;11.35;95.47;100554.22;5052839;28;20481;-74
2023/04/22 06:07:06;;;;;;;66.18;48.95;;;11.00;99.90;;;11.47;94.95;100547.03;5086332;28;20076;-74
2023/04/22 06:09:34;;;;;;;67.88;49.92;;;11.10;99.90;;;11.56;94.46;100546.00;5054044;28;20045;-74
2023/04/22 06:12:03;;;;;;;66.03;49.47;;;11.30;99.90;;;11.64;93.91;100549.44;5052543;28;20096;-74
2023/04/22 06:14:32;;;;;;;68.10;50.15;;;11.30;99.90;;;11.73;93.44;100555.50;5052581;28;20166;-74
2023/04/22 06:17:01;;;;;;;65.97;49.67;;;11.40;99.90;;;11.83;93.02;100555.41;5068948;28;20053;-74
2023/04/22 06:19:29;;;;;;;67.07;48.20;;;11.50;99.90;;;11.86;92.81;100544.72;5052362;28;20045;-74
2023/04/22 06:21:59;;;;;;;66.57;48.95;;;11.60;99.90;;;11.94;92.73;100535.78;5052315;28;20080;-73
2023/04/22 06:24:28;;;;;;;65.33;49.17;;;11.60;99.90;;;12.02;92.41;100540.97;5053307;28;20513;-73
2023/04/22 06:26:57;;;;;;;66.70;49.53;;;11.70;99.90;;;12.07;92.30;100539.97;5053623;28;20280;-74
2023/04/22 06:29:28;;;;;;;66.65;51.30;;;11.80;99.90;;;12.11;91.87;100541.69;5068997;28;20380;-74
2023/04/22 06:31:57;;;;;;;65.40;49.40;;;11.90;99.90;;;12.10;91.74;100534.63;5052204;28;20049;-74
2023/04/22 06:34:25;;;;;;;61.85;48.60;;;11.80;99.90;;;12.22;91.71;100533.53;5052022;28;20140;-73
2023/04/22 06:36:55;;;;;;;67.25;50.20;;;11.90;99.90;;;12.27;91.51;100532.56;5085668;28;20049;-73
2023/04/22 06:39:26;;;;;;;62.47;46.83;;;12.00;99.90;;;12.29;91.44;100537.88;5052168;28;20282;-78
2023/04/22 06:42:10;;;;;;;60.10;47.97;;;12.00;99.90;;;12.31;91.39;100539.56;5051707;28;20136;-81
2023/04/22 06:44:49;;;;;;;60.70;47.08;;;12.00;99.90;;;12.32;91.70;100537.81;5052021;28;20055;-79
2023/04/22 06:47:35;;;;;;;59.08;44.53;;;12.00;99.90;;;12.40;91.42;100533.25;5068554;28;20052;-81
2023/04/22 06:50:14;;;;;;;57.38;44.83;;;12.10;99.90;;;12.25;91.46;100546.78;5052188;28;20056;-80
2023/04/22 06:52:50;;;;;;;57.13;44.53;;;11.90;99.90;;;12.36;91.77;100531.53;5051627;28;20060;-74
2023/04/22 06:55:20;;;;;;;54.28;44.40;;;12.00;99.90;;;12.11;92.11;100533.75;5052205;28;20052;-80
2023/04/22 06:57:50;;;;;;;55.55;44.22;;;11.80;99.90;;;12.37;91.98;100527.97;5052580;28;20126;-78
2023/04/22 07:00:19;;;;;;;55.83;43.30;;;12.00;99.90;;;12.52;91.55;100517.13;5054279;28;20045;-78
2023/04/22 07:02:47;;;;;;;55.35;42.20;;;12.10;99.90;;;12.67;91.67;100522.13;5052125;28;20049;-78
2023/04/22 07:05:17;;;;;;;53.00;43.17;;;12.30;99.90;;;12.69;91.05;100521.22;5052026;28;20045;-80
2023/04/22 07:07:46;;;;;;;53.90;42.78;;;12.40;99.90;;;12.61;90.80;100522.25;5068612;28;20072;-76
2023/04/22 07:10:21;;;;;;;51.35;42.28;;;12.40;99.90;;;12.46;91.02;100549.94;5068561;28;20118;-76
2023/04/22 07:13:08;;;;;;;50.03;40.50;;;12.20;99.90;;;12.02;92.23;100533.00;5052984;28;20217;-77
2023/04/22 07:15:36;;;;;;;53.22;41.03;;;11.80;99.90;;;11.95;94.63;100521.63;5052551;28;20055;-76
2023/04/22 07:18:05;;;;;;;53.03;40.35;;;11.70;99.90;;;12.09;94.71;100514.31;5052599;28;20052;-75
2023/04/22 07:20:33;;;;;;;53.88;42.38;;;11.70;99.90;;;12.42;94.09;100534.97;5052967;28;20041;-79
2023/04/22 07:23:02;;;;;;;51.40;40.88;;;11.90;99.90;;;12.56;93.89;100524.13;5053284;28;20033;-82
2023/04/22 07:25:33;;;;;;;48.65;40.17;;;12.10;99.90;;;12.31;93.65;100528.09;5053404;28;20044;-81
2023/04/22 07:28:01;;;;;;;;;;;12.10;99.90;;;12.10;94.82;100545.22;5053086;28;20199;-81
2023/04/22 07:30:30;;;;;;;47.85;38.15;;;11.80;99.90;;;12.36;95.96;100552.75;5052512;28;20023;-80
2023/04/22 07:32:59;;;;;;;48.47;39.63;;;11.80;99.90;;;12.43;94.93;100517.25;5068259;28;20494;-78
2023/04/22 07:35:29;;;;;;;49.00;40.30;;;12.20;99.90;;;12.80;94.57;100555.50;5052917;28;20045;-77
2023/04/22 07:37:59;;;;;;;50.33;40.10;;;12.40;99.90;;;12.96;93.69;100550.78;5052497;28;20126;-77
2023/04/22 07:40:27;;;;;;;45.15;37.78;;;12.60;99.90;;;13.04;92.40;100551.56;5050927;28;20053;-73
2023/04/22 07:42:57;;;;;;;46.00;37.40;;;12.70;99.90;;;13.20;91.56;100535.25;5052779;28;20127;-72
2023/04/22 07:45:25;;;;;;;46.15;38.50;;;12.90;99.90;;;13.52;91.54;100542.56;5052271;28;20041;-71
2023/04/22 07:47:54;;;;;;;42.17;35.67;;;13.20;99.90;;;13.74;90.39;100538.53;5067771;28;20048;-72
2023/04/22 07:50:23;;;;;;;44.97;36.85;;;13.40;99.90;;;13.79;88.94;100536.66;5052347;28;20044;-72
2023/04/22 07:52:51;;;;;;;43.58;35.55;;;13.60;99.90;;;14.06;88.75;100541.31;5052032;28;20033;-71
2023/04/22 07:55:20;;;;;;;43.22;34.47;;;13.80;99.90;;;14.23;86.75;100516.94;5052204;28;20044;-74
2023/04/22 07:57:48;;;;;;;38.90;32.78;;;13.90;99.90;;;14.25;84.32;100516.00;5052797;28;20116;-72
2023/04/22 08:00:18;;;;;;;41.47;34.95;;;14.00;99.90;;;14.33;83.65;100510.53;5050995;28;20132;-73
2023/04/22 08:02:46;;;;;;;38.67;32.17;;;14.10;99.90;;;14.53;83.82;100507.34;5052529;28;20041;-70
2023/04/22 08:05:15;;;;;;;38.58;32.15;;;14.20;99.90;;;14.22;82.66;100502.81;5051968;28;20514;-78
2023/04/22 08:07:44;;;;;;;37.25;31.27;;;14.10;99.90;;;14.24;82.35;100495.66;5052006;28;20045;-74
2023/04/22 08:10:12;;;;;;;35.72;29.77;;;14.00;99.90;;;14.30;81.13;100502.63;5052210;28;20624;-75
2023/04/22 08:12:40;;;;;;;32.88;28.98;;;14.00;99.90;;;14.39;80.83;100503.28;5052204;28;20052;-65
2023/04/22 08:15:10;;;;;;;32.65;28.52;;;14.10;99.90;;;14.63;80.54;100514.19;5052259;28;20041;-72
2023/04/22 08:17:40;;;;;;;33.53;28.73;;;14.20;99.90;;;14.76;80.06;100524.47;5052153;28;20040;-71
2023/04/22 08:20:09;;;;;;;33.70;29.17;;;14.40;99.90;;;14.76;79.52;100504.97;5051983;28;20048;-72
2023/04/22 08:22:38;;;;;;;35.95;30.38;;;14.40;99.90;;;14.74;79.53;100515.66;5054464;28;20044;-74
2023/04/22 08:25:08;;;;;;;34.38;29.42;;;14.40;99.90;;;15.00;79.82;100523.78;5056288;28;20037;-74
2023/04/22 08:27:37;;;;;;;34.38;29.02;;;14.60;99.90;;;15.13;79.72;100535.88;5056265;28;20072;-77
2023/04/22 08:30:07;;;;;;;34.67;29.63;;;14.80;99.90;;;15.31;79.61;100521.16;5055735;28;20570;-74
2023/04/22 08:32:36;;;;;;;32.30;28.80;;;15.00;99.90;;;15.37;78.53;100516.47;5056204;28;20049;-77
2023/04/22 08:35:07;;;;;;;34.40;28.42;;;15.10;99.90;;;15.51;78.10;100509.91;5056227;28;20041;-78
2023/04/22 08:37:36;;;;;;;31.50;25.60;;;15.20;99.90;;;15.17;76.22;100507.34;5055932;28;20128;-77
2023/04/22 08:40:07;;;;;;;28.55;23.80;;;15.00;99.90;;;15.14;74.24;100497.63;5055884;28;20335;-75
2023/04/22 08:42:35;;;;;;;28.60;22.40;;;14.90;99.90;;;14.93;72.61;100500.91;5055665;28;20158;-77
2023/04/22 08:45:05;;;;;;;28.80;23.88;;;14.60;99.90;;;15.18;73.57;100482.44;5056082;28;20045;-75
2023/04/22 08:47:35;;;;;;;28.20;23.73;;;14.80;99.90;;;15.69;74.01;100496.91;5056072;28;20044;-74
2023/04/22 08:50:08;;;;;;;26.90;23.42;;;15.30;99.90;;;15.98;72.84;100506.63;5054751;28;20049;-76
2023/04/22 08:52:37;;;;;;;18.92;16.95;;;15.60;99.90;;;15.51;66.88;100473.47;5055903;28;20514;-76
2023/04/22 08:55:07;;;;;;;25.02;22.42;;;15.40;99.90;;;15.34;70.13;100481.06;5055716;28;20407;-77
2023/04/22 08:57:38;;;;;;;24.00;21.40;;;15.10;99.90;;;15.75;71.48;100477.16;5055641;28;20505;-76
2023/04/22 09:00:08;;;;;;;24.65;21.92;;;15.30;99.90;;;15.55;70.68;100466.22;5055987;28;20041;-77
2023/04/22 09:02:38;;;;;;;23.40;19.25;;;15.30;99.90;;;15.70;69.52;100458.63;5055798;28;20351;-73
2023/04/22 09:05:10;;;;;;;21.48;19.13;;;15.40;99.90;;;15.78;70.31;100453.03;5055000;28;20041;-73
2023/04/22 09:07:39;;;;;;;22.48;20.08;;;15.40;99.90;;;15.81;69.47;100440.50;5053450;28;20041;-72
2023/04/22 09:10:10;;;;;;;22.13;19.45;;;15.50;99.90;;;15.47;69.39;100356.31;5054888;28;20063;-76
2023/04/22 09:12:41;;;;;;;22.13;18.95;;;15.60;99.90;;;16.11;69.78;100439.47;5055418;28;20048;-75
2023/04/22 09:15:11;;;;;;;19.77;17.25;;;15.80;99.90;;;16.22;68.62;100447.09;5055558;28;20065;-75
2023/04/22 09:17:42;;;;;;;17.35;15.45;;;15.90;99.90;;;15.04;67.46;100440.22;5055098;28;20459;-83
2023/04/22 09:20:14;;;;;;;18.38;16.48;;;15.10;99.90;;;15.23;68.38;100461.88;5055069;28;20140;-78
2023/04/22 09:22:45;;;;;;;19.08;17.08;;;14.90;99.90;;;15.50;69.01;100449.53;5055157;28;20045;-75
2023/04/22 09:25:17;;;;;;;16.98;15.30;;;15.10;99.90;;;15.04;67.54;100456.19;5054421;28;20047;-78
2023/04/22 09:27:50;;;;;;;17.77;15.88;;;14.80;99.90;;;14.81;68.91;100453.31;5086532;28;20110;-75
2023/04/22 09:30:23;;;;;;;19.38;16.58;;;14.50;99.90;;;15.24;68.33;100461.81;5053392;28;20072;-80
2023/04/22 09:32:56;;;;;;;19.20;16.13;;;14.80;99.90;;;15.09;69.21;100472.06;5054291;28;20080;-73
2023/04/22 09:35:31;;;;;;;18.60;16.60;;;14.80;99.90;;;14.66;69.52;100466.19;5054491;28;20120;-74
2023/04/22 09:38:03;;;;;;;18.80;16.85;;;14.40;99.90;;;15.13;69.28;100477.25;5053282;28;20490;-77
2023/04/22 09:40:33;;;;;;;20.15;17.08;;;14.70;99.90;;;15.35;68.49;100497.00;5054709;28;20081;-81
2023/04/22 09:43:03;;;;;;;19.50;17.40;;;15.00;99.90;;;15.46;67.37;100491.41;5055114;28;20144;-89
2023/04/22 09:45:34;;;;;;;18.98;16.70;;;15.20;99.90;;;15.67;66.77;100501.41;5054631;28;20366;-74
2023/04/22 09:48:06;;;;;;;18.48;16.58;;;15.30;99.90;;;15.68;66.58;100481.81;5054104;28;20099;-78
2023/04/22 09:50:38;;;;;;;18.00;16.20;;;15.50;99.90;;;15.85;65.79;100491.94;5053459;28;20053;-78
2023/04/22 09:53:08;;;;;;;17.50;15.68;;;15.70;99.90;;;16.10;65.17;100517.75;5054057;28;20455;-74
2023/04/22 09:55:40;;;;;;;19.38;17.35;;;15.80;99.90;;;16.17;64.78;100515.78;5053312;28;20167;-76
2023/04/22 09:58:11;;;;;;;18.88;16.88;;;15.90;99.90;;;16.36;64.50;100518.69;5053869;28;20379;-78
2023/04/22 10:00:43;;;;;;;20.23;16.20;;;16.00;99.90;;;16.51;63.99;100512.91;5054329;28;20053;-80
2023/04/22 10:03:11;;;;;;;19.52;16.00;;;16.20;99.90;;;16.66;63.60;100517.72;5053995;28;20045;-81
2023/04/22 10:05:43;;;;;;;19.02;17.02;;;16.40;99.90;;;16.68;63.63;100524.75;5054391;28;20041;-81
2023/04/22 10:08:14;;;;;;;18.95;17.02;;;16.50;99.90;;;16.80;63.91;100521.63;5054110;28;20121;-82
2023/04/22 10:10:44;;;;;;;18.88;16.88;;;16.50;99.90;;;16.89;63.10;100512.41;5054181;28;20124;-87
2023/04/22 10:13:13;;;;;;;19.60;17.50;;;16.60;99.90;;;16.86;63.82;100516.06;5054461;28;20041;-80
2023/04/22 10:15:49;;;;;;;19.42;17.40;;;16.60;99.90;;;16.84;63.59;100511.72;5053797;28;20099;-81